createdAt,value
2019-01-29T00:00:31.371Z,99.90
2019-01-29T00:03:00.183Z,99.90
2019-01-29T00:05:29.131Z,99.90
2019-01-29T00:07:57.901Z,99.90
2019-01-29T00:10:26.682Z,99.90
2019-01-29T00:12:55.488Z,99.90
2019-01-29T00:15:24.419Z,99.90
2019-01-29T00:17:53.329Z,99.90
2019-01-29T00:20:22.143Z,99.90
2019-01-29T00:22:51.001Z,99.90
2019-01-29T00:25:19.830Z,99.90
2019-01-29T00:27:48.621Z,99.90
2019-01-29T00:30:17.594Z,99.90
2019-01-29T00:32:46.709Z,99.90
2019-01-29T00:35:15.945Z,99.90
2019-01-29T00:37:44.768Z,99.90
2019-01-29T00:40:13.889Z,99.90
2019-01-29T00:42:42.650Z,99.90
2019-01-29T00:45:11.814Z,99.90
2019-01-29T00:47:40.583Z,99.90
2019-01-29T00:50:09.956Z,99.90
2019-01-29T00:52:42.009Z,99.90
2019-01-29T00:55:10.375Z,99.90
2019-01-29T00:57:39.219Z,99.90
2019-01-29T01:00:12.323Z,99.90
2019-01-29T01:02:41.176Z,99.90
2019-01-29T01:05:10.107Z,99.90
2019-01-29T01:07:39.136Z,99.90
2019-01-29T01:10:09.368Z,99.90
2019-01-29T01:12:38.458Z,99.90
2019-01-29T01:15:08.251Z,99.90
2019-01-29T01:17:37.131Z,99.90
2019-01-29T01:20:07.878Z,99.90
2019-01-29T01:22:36.619Z,99.90
2019-01-29T01:25:06.395Z,99.90
2019-01-29T01:27:35.319Z,99.90
2019-01-29T01:30:04.963Z,99.90
2019-01-29T01:32:33.794Z,99.90
2019-01-29T01:35:02.885Z,99.90
2019-01-29T01:37:31.914Z,99.90
2019-01-29T01:40:01.034Z,99.90
2019-01-29T01:42:29.789Z,99.90
2019-01-29T01:44:58.547Z,99.90
2019-01-29T01:47:27.379Z,99.90
2019-01-29T01:49:56.158Z,99.90
2019-01-29T01:52:24.906Z,99.90
2019-01-29T01:54:53.747Z,99.90
2019-01-29T01:57:22.575Z,99.90
2019-01-29T01:59:51.842Z,99.90
2019-01-29T02:02:20.708Z,99.90
2019-01-29T02:04:49.486Z,99.90
2019-01-29T02:07:18.307Z,99.90
2019-01-29T02:09:47.047Z,99.90
2019-01-29T02:12:15.844Z,99.90
2019-01-29T02:14:44.668Z,99.90
2019-01-29T02:17:13.414Z,99.90
2019-01-29T02:19:42.489Z,99.90
2019-01-29T02:22:11.363Z,99.90
2019-01-29T02:24:40.330Z,99.90
2019-01-29T02:27:09.215Z,99.90
2019-01-29T02:29:38.305Z,99.90
2019-01-29T02:32:07.152Z,99.90
2019-01-29T02:34:35.975Z,99.90
2019-01-29T02:37:04.812Z,99.90
2019-01-29T02:39:33.635Z,99.90
2019-01-29T02:42:02.375Z,99.90
2019-01-29T02:44:31.146Z,99.90
2019-01-29T02:46:59.903Z,99.90
2019-01-29T02:49:28.675Z,99.90
2019-01-29T02:51:57.771Z,99.90
2019-01-29T02:54:26.515Z,99.90
2019-01-29T02:56:55.262Z,99.80
2019-01-29T02:59:24.000Z,99.30
2019-01-29T03:01:53.154Z,97.60
2019-01-29T03:04:22.491Z,98.30
2019-01-29T03:06:51.338Z,98.30
2019-01-29T03:09:20.393Z,97.00
2019-01-29T03:11:49.259Z,97.00
2019-01-29T03:14:18.143Z,96.40
2019-01-29T03:16:46.907Z,97.40
2019-01-29T03:19:15.735Z,98.70
2019-01-29T03:21:44.509Z,99.30
2019-01-29T03:24:13.294Z,99.90
2019-01-29T03:26:42.268Z,99.90
2019-01-29T03:29:11.029Z,99.90
2019-01-29T03:31:40.251Z,99.90
2019-01-29T03:34:09.123Z,99.90
2019-01-29T03:36:37.875Z,99.90
2019-01-29T03:39:08.592Z,99.90
2019-01-29T03:41:37.331Z,99.90
2019-01-29T03:44:06.285Z,99.90
2019-01-29T03:46:35.132Z,99.90
2019-01-29T03:49:04.412Z,99.90
2019-01-29T03:51:33.284Z,99.90
2019-01-29T03:54:02.067Z,99.90
2019-01-29T03:56:30.852Z,99.90
2019-01-29T03:58:59.709Z,99.90
2019-01-29T04:01:28.604Z,99.90
2019-01-29T04:03:57.358Z,99.90
2019-01-29T04:06:26.224Z,99.90
2019-01-29T04:08:55.380Z,98.30
2019-01-29T04:11:24.454Z,98.60
2019-01-29T04:13:53.754Z,97.70
2019-01-29T04:16:22.748Z,98.00
2019-01-29T04:18:52.017Z,98.50
2019-01-29T04:21:21.272Z,99.20
2019-01-29T04:23:50.528Z,99.90
2019-01-29T04:26:19.934Z,99.90
2019-01-29T04:28:49.008Z,99.90
2019-01-29T04:31:18.374Z,99.90
2019-01-29T04:33:47.449Z,99.90
2019-01-29T04:36:16.523Z,99.90
2019-01-29T04:38:45.993Z,99.90
2019-01-29T04:41:15.042Z,99.90
2019-01-29T04:43:44.156Z,99.90
2019-01-29T04:46:13.312Z,99.90
2019-01-29T04:48:42.400Z,99.90
2019-01-29T04:51:11.805Z,99.90
2019-01-29T04:53:40.886Z,99.90
2019-01-29T04:56:10.261Z,99.90
2019-01-29T04:58:39.703Z,99.90
2019-01-29T05:01:08.816Z,99.90
2019-01-29T05:03:38.363Z,99.90
2019-01-29T05:06:07.492Z,99.90
2019-01-29T05:08:36.750Z,99.90
2019-01-29T05:11:06.057Z,99.90
2019-01-29T05:13:35.403Z,99.90
2019-01-29T05:16:04.927Z,99.90
2019-01-29T05:18:38.491Z,99.90
2019-01-29T05:21:22.511Z,99.60
2019-01-29T05:23:53.738Z,98.80
2019-01-29T05:26:24.683Z,98.30
2019-01-29T05:28:54.625Z,97.70
2019-01-29T05:31:25.001Z,96.20
2019-01-29T05:33:54.199Z,95.40
2019-01-29T05:36:26.857Z,93.40
2019-01-29T05:38:56.648Z,93.30
2019-01-29T05:41:31.642Z,92.60
2019-01-29T05:44:02.280Z,91.50
2019-01-29T05:46:31.562Z,92.50
2019-01-29T05:49:04.094Z,89.20
2019-01-29T05:51:33.136Z,86.50
2019-01-29T05:54:03.715Z,89.30
2019-01-29T05:56:32.825Z,91.00
2019-01-29T05:59:02.025Z,87.90
2019-01-29T06:01:31.726Z,88.70
2019-01-29T06:04:01.959Z,87.70
2019-01-29T06:06:31.025Z,86.40
2019-01-29T06:08:59.965Z,86.30
2019-01-29T06:11:29.335Z,84.80
2019-01-29T06:13:58.236Z,86.00
2019-01-29T06:16:27.293Z,86.20
2019-01-29T06:19:03.425Z,83.80
2019-01-29T06:21:32.120Z,84.30
2019-01-29T06:24:01.185Z,85.60
2019-01-29T06:26:30.082Z,86.30
2019-01-29T06:28:59.257Z,86.50
2019-01-29T06:31:28.455Z,86.90
2019-01-29T06:33:57.952Z,86.30
2019-01-29T06:36:27.100Z,84.40
2019-01-29T06:38:57.520Z,85.60
2019-01-29T06:41:26.812Z,86.60
2019-01-29T06:43:56.233Z,86.50
2019-01-29T06:46:28.041Z,86.60
2019-01-29T06:48:56.053Z,85.20
2019-01-29T06:51:26.395Z,85.40
2019-01-29T06:53:55.914Z,85.50
2019-01-29T06:56:25.025Z,84.40
2019-01-29T06:58:54.090Z,84.80
2019-01-29T07:01:23.467Z,84.40
2019-01-29T07:03:52.777Z,85.40
2019-01-29T07:06:21.827Z,86.10
2019-01-29T07:08:50.889Z,83.50
2019-01-29T07:11:20.042Z,84.90
2019-01-29T07:13:49.219Z,83.60
2019-01-29T07:16:34.685Z,84.70
2019-01-29T07:19:12.483Z,85.30
2019-01-29T07:21:42.488Z,83.20
2019-01-29T07:24:11.690Z,84.20
2019-01-29T07:26:40.585Z,84.10
2019-01-29T07:29:09.900Z,84.00
2019-01-29T07:31:39.057Z,81.90
2019-01-29T07:34:08.289Z,82.10
2019-01-29T07:36:37.502Z,82.30
2019-01-29T07:39:10.043Z,81.50
2019-01-29T07:41:39.198Z,82.40
2019-01-29T07:44:08.305Z,82.50
2019-01-29T07:46:37.554Z,81.90
2019-01-29T07:49:06.994Z,82.90
2019-01-29T07:51:36.179Z,80.90
2019-01-29T07:54:05.369Z,80.60
2019-01-29T07:56:34.429Z,81.30
2019-01-29T07:59:03.523Z,82.20
2019-01-29T08:01:32.603Z,80.40
2019-01-29T08:04:03.011Z,80.70
2019-01-29T08:06:32.530Z,82.00
2019-01-29T08:09:01.909Z,80.40
2019-01-29T08:11:30.968Z,80.30
2019-01-29T08:14:00.050Z,80.80
2019-01-29T08:16:29.058Z,80.70
2019-01-29T08:18:58.021Z,78.80
2019-01-29T08:21:27.086Z,77.00
2019-01-29T08:23:56.278Z,76.80
2019-01-29T08:26:25.450Z,78.50
2019-01-29T08:28:54.441Z,79.70
2019-01-29T08:31:24.094Z,80.10
2019-01-29T08:33:53.060Z,78.40
2019-01-29T08:36:22.210Z,79.30
2019-01-29T08:38:51.184Z,80.20
2019-01-29T08:41:20.498Z,78.40
2019-01-29T08:43:49.544Z,78.60
2019-01-29T08:46:18.780Z,78.70
2019-01-29T08:48:47.729Z,78.90
2019-01-29T08:51:16.725Z,80.40
2019-01-29T08:53:46.087Z,80.00
2019-01-29T08:56:15.253Z,80.00
2019-01-29T08:58:44.373Z,81.40
2019-01-29T09:01:13.708Z,81.10
2019-01-29T09:03:43.765Z,81.20
2019-01-29T09:06:13.222Z,82.90
2019-01-29T09:08:44.002Z,83.00
2019-01-29T09:11:21.777Z,84.90
2019-01-29T09:13:50.815Z,85.00
2019-01-29T09:16:19.842Z,85.80
2019-01-29T09:18:49.138Z,85.40
2019-01-29T09:21:18.109Z,86.60
2019-01-29T09:23:47.177Z,85.80
2019-01-29T09:26:16.162Z,84.40
2019-01-29T09:28:45.787Z,84.60
2019-01-29T09:31:15.123Z,83.90
2019-01-29T09:33:44.132Z,82.70
2019-01-29T09:36:13.060Z,83.40
2019-01-29T09:38:42.089Z,84.90
2019-01-29T09:41:11.187Z,84.70
2019-01-29T09:43:40.522Z,83.20
2019-01-29T09:46:09.576Z,81.60
2019-01-29T09:48:38.675Z,82.10
2019-01-29T09:51:07.764Z,82.30
2019-01-29T09:53:36.750Z,78.70
2019-01-29T09:56:05.870Z,79.10
2019-01-29T09:58:34.893Z,77.00
2019-01-29T10:01:03.800Z,78.50
2019-01-29T10:03:32.826Z,77.70
2019-01-29T10:06:01.849Z,77.50
2019-01-29T10:08:31.150Z,79.00
2019-01-29T10:11:00.063Z,75.70
2019-01-29T10:13:28.856Z,74.90
2019-01-29T10:15:57.640Z,77.10
2019-01-29T10:18:26.506Z,75.60
2019-01-29T10:20:55.580Z,74.50
2019-01-29T10:23:24.442Z,74.30
2019-01-29T10:25:53.288Z,72.60
2019-01-29T10:28:22.035Z,73.40
2019-01-29T10:30:50.879Z,73.20
2019-01-29T10:33:19.692Z,73.20
2019-01-29T10:35:48.523Z,71.80
2019-01-29T10:38:17.305Z,71.00
2019-01-29T10:40:46.063Z,69.30
2019-01-29T10:43:14.917Z,70.90
2019-01-29T10:45:43.671Z,72.10
2019-01-29T10:48:12.547Z,69.50
2019-01-29T10:50:41.397Z,72.50
2019-01-29T10:53:10.250Z,74.40
2019-01-29T10:55:47.103Z,75.30
2019-01-29T10:58:09.641Z,75.50
2019-01-29T11:00:40.034Z,77.60
2019-01-29T11:03:10.440Z,77.00
2019-01-29T11:05:39.958Z,76.60
2019-01-29T11:08:08.755Z,78.00
2019-01-29T11:10:37.710Z,75.40
2019-01-29T11:13:07.385Z,76.70
2019-01-29T11:15:38.595Z,72.90
2019-01-29T11:18:10.463Z,73.00
2019-01-29T11:20:39.412Z,71.60
2019-01-29T11:23:08.278Z,71.00
2019-01-29T11:25:37.280Z,68.50
2019-01-29T11:28:06.623Z,69.70
2019-01-29T11:30:35.638Z,70.00
2019-01-29T11:33:05.246Z,70.40
2019-01-29T11:35:34.338Z,68.50
2019-01-29T11:38:03.129Z,68.20
2019-01-29T11:40:32.567Z,67.70
2019-01-29T11:43:01.499Z,69.00
2019-01-29T11:45:32.927Z,68.20
2019-01-29T11:48:01.970Z,68.00
2019-01-29T11:50:30.940Z,67.10
2019-01-29T11:52:59.772Z,69.00
2019-01-29T11:55:28.624Z,67.50
2019-01-29T11:57:57.470Z,65.10
2019-01-29T12:00:45.148Z,67.50
2019-01-29T12:03:14.176Z,67.20
2019-01-29T12:05:42.937Z,66.00
2019-01-29T12:08:11.897Z,65.00
2019-01-29T12:10:40.766Z,64.30
2019-01-29T12:13:09.682Z,65.00
2019-01-29T12:15:38.692Z,66.50
2019-01-29T12:18:07.741Z,66.70
2019-01-29T12:20:36.641Z,65.70
2019-01-29T12:23:05.532Z,65.60
2019-01-29T12:25:34.461Z,66.20
2019-01-29T12:28:03.641Z,65.20
2019-01-29T12:30:32.746Z,66.90
2019-01-29T12:33:02.095Z,67.30
2019-01-29T12:35:31.188Z,68.00
2019-01-29T12:37:59.946Z,67.90
2019-01-29T12:40:28.747Z,67.80
2019-01-29T12:42:57.610Z,69.40
2019-01-29T12:45:26.531Z,68.80
2019-01-29T12:47:55.503Z,68.00
2019-01-29T12:50:24.691Z,66.70
2019-01-29T12:53:05.596Z,66.80
2019-01-29T12:55:34.678Z,68.70
2019-01-29T12:58:03.516Z,69.40
2019-01-29T13:00:36.955Z,66.10
2019-01-29T13:03:06.267Z,65.40
2019-01-29T13:05:35.416Z,66.10
2019-01-29T13:08:04.751Z,67.40
2019-01-29T13:10:33.646Z,65.40
2019-01-29T13:13:02.607Z,63.60
2019-01-29T13:15:31.487Z,62.30
2019-01-29T13:18:00.651Z,63.70
2019-01-29T13:20:29.840Z,63.90
2019-01-29T13:22:58.919Z,64.50
2019-01-29T13:25:27.668Z,63.00
2019-01-29T13:27:56.481Z,63.30
2019-01-29T13:30:28.265Z,62.30
2019-01-29T13:32:57.330Z,64.10
2019-01-29T13:35:28.505Z,64.30
2019-01-29T13:37:57.377Z,62.10
2019-01-29T13:40:26.342Z,62.30
2019-01-29T13:42:55.182Z,60.50
2019-01-29T13:45:24.329Z,60.40
2019-01-29T13:47:53.317Z,61.40
2019-01-29T13:50:26.471Z,62.60
2019-01-29T13:52:55.404Z,61.40
2019-01-29T13:55:24.738Z,62.00
2019-01-29T13:57:53.766Z,64.40
2019-01-29T14:00:28.240Z,62.60
2019-01-29T14:02:57.107Z,62.90
2019-01-29T14:05:26.365Z,60.50
2019-01-29T14:07:55.774Z,59.40
2019-01-29T14:10:24.654Z,61.00
2019-01-29T14:12:53.690Z,60.90
2019-01-29T14:15:28.604Z,60.70
2019-01-29T14:17:57.619Z,61.30
2019-01-29T14:20:26.627Z,59.90
2019-01-29T14:22:55.665Z,60.40
2019-01-29T14:25:24.574Z,59.50
2019-01-29T14:27:53.530Z,58.20
2019-01-29T14:30:22.523Z,59.20
2019-01-29T14:32:51.335Z,59.30
2019-01-29T14:35:22.059Z,59.50
2019-01-29T14:38:25.243Z,60.40
2019-01-29T14:40:54.079Z,61.60
2019-01-29T14:43:23.782Z,59.50
2019-01-29T14:45:52.629Z,61.70
2019-01-29T14:48:21.479Z,60.70
2019-01-29T14:50:50.303Z,60.90
2019-01-29T14:53:19.253Z,59.90
2019-01-29T14:55:48.409Z,59.80
2019-01-29T14:58:17.343Z,58.80
2019-01-29T15:00:46.835Z,58.50
2019-01-29T15:03:26.674Z,59.40
2019-01-29T15:05:55.457Z,58.70
2019-01-29T15:08:24.567Z,59.50
2019-01-29T15:10:53.479Z,59.60
2019-01-29T15:13:22.579Z,59.30
2019-01-29T15:15:54.726Z,57.60
2019-01-29T15:18:27.115Z,58.90
2019-01-29T15:20:55.910Z,59.80
2019-01-29T15:23:24.724Z,59.00
2019-01-29T15:25:53.883Z,59.60
2019-01-29T15:28:23.037Z,59.00
2019-01-29T15:30:51.815Z,59.10
2019-01-29T15:33:21.070Z,58.40
2019-01-29T15:35:49.955Z,59.20
2019-01-29T15:38:19.250Z,58.50
2019-01-29T15:40:48.135Z,58.90
2019-01-29T15:43:16.902Z,59.60
2019-01-29T15:45:45.682Z,60.20
2019-01-29T15:48:14.486Z,60.60
2019-01-29T15:50:43.363Z,62.00
2019-01-29T15:53:12.274Z,63.20
2019-01-29T15:55:41.195Z,63.30
2019-01-29T15:58:13.578Z,63.20
2019-01-29T16:00:42.358Z,63.60
2019-01-29T16:03:11.181Z,63.50
2019-01-29T16:05:40.187Z,64.00
2019-01-29T16:08:09.122Z,64.80
2019-01-29T16:10:39.853Z,64.80
2019-01-29T16:13:08.878Z,65.30
2019-01-29T16:15:38.093Z,65.80
2019-01-29T16:18:07.600Z,65.90
2019-01-29T16:20:36.948Z,66.70
2019-01-29T16:25:53.524Z,68.50
2019-01-29T16:28:22.354Z,69.30
2019-01-29T16:30:51.171Z,70.10
2019-01-29T16:33:39.467Z,70.90
2019-01-29T16:36:08.470Z,71.60
2019-01-29T16:38:37.304Z,72.10
2019-01-29T16:41:06.135Z,72.40
2019-01-29T16:43:34.883Z,72.90
2019-01-29T16:46:03.932Z,73.00
2019-01-29T16:48:32.696Z,73.90
2019-01-29T16:51:01.499Z,74.20
2019-01-29T16:53:30.899Z,75.90
2019-01-29T16:55:59.677Z,76.60
2019-01-29T16:58:28.670Z,78.10
2019-01-29T17:00:57.547Z,78.40
2019-01-29T17:03:26.580Z,80.00
2019-01-29T17:05:55.396Z,80.40
2019-01-29T17:08:24.338Z,81.80
2019-01-29T17:10:53.299Z,82.50
2019-01-29T17:13:22.119Z,84.00
2019-01-29T17:15:50.971Z,85.40
2019-01-29T17:18:19.830Z,86.40
2019-01-29T17:20:48.682Z,86.90
2019-01-29T17:23:17.436Z,87.80
2019-01-29T17:25:46.196Z,89.00
2019-01-29T17:28:14.975Z,89.30
2019-01-29T17:30:44.282Z,89.80
2019-01-29T17:33:15.635Z,90.30
2019-01-29T17:35:44.731Z,90.40
2019-01-29T17:38:13.663Z,90.80
2019-01-29T17:40:42.785Z,91.20
2019-01-29T17:43:11.819Z,91.60
2019-01-29T17:45:42.515Z,91.60
2019-01-29T17:48:11.536Z,91.60
2019-01-29T17:50:42.039Z,91.80
2019-01-29T17:53:11.083Z,92.20
2019-01-29T17:55:40.976Z,92.60
2019-01-29T17:58:11.015Z,93.10
2019-01-29T18:00:42.224Z,93.50
2019-01-29T18:03:11.201Z,94.10
2019-01-29T18:05:40.468Z,94.10
2019-01-29T18:08:09.415Z,93.90
2019-01-29T18:10:38.407Z,94.00
2019-01-29T18:13:07.516Z,93.80
2019-01-29T18:15:36.445Z,94.20
2019-01-29T18:18:05.572Z,93.90
2019-01-29T18:20:34.540Z,94.10
2019-01-29T18:23:05.784Z,93.90
2019-01-29T18:25:34.652Z,94.20
2019-01-29T18:28:03.714Z,94.00
2019-01-29T18:30:33.144Z,94.20
2019-01-29T18:33:02.126Z,94.40
2019-01-29T18:35:31.264Z,94.70
2019-01-29T18:38:00.443Z,95.30
2019-01-29T18:40:35.267Z,94.90
2019-01-29T18:43:04.229Z,95.40
2019-01-29T18:45:33.042Z,95.70
2019-01-29T18:48:01.904Z,96.00
2019-01-29T18:50:31.582Z,96.30
2019-01-29T18:53:00.673Z,96.40
2019-01-29T18:55:29.531Z,96.30
2019-01-29T18:57:58.582Z,96.40
2019-01-29T19:00:27.606Z,96.50
2019-01-29T19:02:56.737Z,96.60
2019-01-29T19:05:29.496Z,96.70
2019-01-29T19:07:58.591Z,96.70
2019-01-29T19:10:27.912Z,96.40
2019-01-29T19:12:56.901Z,96.20
2019-01-29T19:15:26.046Z,95.50
2019-01-29T19:17:55.728Z,95.00
2019-01-29T19:20:25.109Z,95.10
2019-01-29T19:22:54.475Z,95.40
2019-01-29T19:25:23.754Z,95.70
2019-01-29T19:27:52.647Z,96.30
2019-01-29T19:30:23.471Z,96.70
2019-01-29T19:32:52.294Z,96.70
2019-01-29T19:35:21.256Z,97.10
2019-01-29T19:37:50.349Z,96.40
2019-01-29T19:40:19.268Z,96.40
2019-01-29T19:42:48.195Z,96.10
2019-01-29T19:45:22.339Z,95.50
2019-01-29T19:47:51.279Z,95.90
2019-01-29T19:50:21.802Z,96.00
2019-01-29T19:52:50.750Z,96.40
2019-01-29T19:55:19.883Z,96.50
2019-01-29T19:57:48.848Z,96.90
2019-01-29T20:00:23.090Z,97.20
2019-01-29T20:02:51.936Z,97.80
2019-01-29T20:05:20.956Z,97.90
2019-01-29T20:07:49.966Z,97.40
2019-01-29T20:10:18.762Z,97.20
2019-01-29T20:12:47.511Z,96.50
2019-01-29T20:15:17.188Z,96.40
2019-01-29T20:17:46.899Z,96.30
2019-01-29T20:20:19.063Z,96.30
2019-01-29T20:22:47.855Z,96.60
2019-01-29T20:25:16.608Z,96.50
2019-01-29T20:27:45.978Z,96.30
2019-01-29T20:30:17.953Z,96.60
2019-01-29T20:32:53.128Z,96.20
2019-01-29T20:35:17.646Z,96.10
2019-01-29T20:37:46.503Z,95.50
2019-01-29T20:40:16.854Z,95.70
2019-01-29T20:42:46.035Z,95.90
2019-01-29T20:45:15.288Z,95.80
2019-01-29T20:47:44.324Z,95.40
2019-01-29T20:50:16.359Z,95.30
2019-01-29T20:52:45.409Z,95.00
2019-01-29T20:55:14.327Z,95.20
2019-01-29T20:57:43.299Z,95.30
2019-01-29T21:00:24.611Z,95.50
2019-01-29T21:02:53.842Z,95.20
2019-01-29T21:05:22.676Z,95.10
2019-01-29T21:07:51.543Z,95.30
2019-01-29T21:10:21.085Z,94.70
2019-01-29T21:12:49.931Z,94.90
2019-01-29T21:15:20.227Z,94.40
2019-01-29T21:17:49.086Z,94.60
2019-01-29T21:20:23.214Z,94.40
2019-01-29T21:22:52.292Z,94.00
2019-01-29T21:25:21.079Z,94.10
2019-01-29T21:27:49.880Z,94.20
2019-01-29T21:30:39.282Z,94.20
2019-01-29T21:33:08.504Z,93.80
2019-01-29T21:35:37.711Z,93.90
2019-01-29T21:38:06.588Z,94.10
2019-01-29T21:40:35.496Z,93.60
2019-01-29T21:43:04.678Z,93.00
2019-01-29T21:45:33.524Z,92.10
2019-01-29T21:48:02.876Z,91.40
2019-01-29T21:50:32.677Z,90.80
2019-01-29T21:53:02.353Z,90.60
2019-01-29T21:55:31.468Z,91.10
2019-01-29T21:58:00.299Z,90.00
2019-01-29T22:00:40.680Z,88.50
2019-01-29T22:03:09.779Z,88.40
2019-01-29T22:05:38.778Z,88.00
2019-01-29T22:08:09.227Z,87.80
2019-01-29T22:10:38.076Z,87.10
2019-01-29T22:13:08.895Z,87.40
2019-01-29T22:15:37.784Z,87.70
2019-01-29T22:18:08.252Z,87.70
2019-01-29T22:20:37.187Z,87.00
2019-01-29T22:23:06.227Z,87.40
2019-01-29T22:25:35.829Z,86.80
2019-01-29T22:28:06.949Z,86.30
2019-01-29T22:30:36.750Z,85.80
2019-01-29T22:33:06.404Z,85.60
2019-01-29T22:35:35.444Z,85.70
2019-01-29T22:38:04.574Z,85.20
2019-01-29T22:40:33.528Z,85.70
2019-01-29T22:43:02.617Z,85.00
2019-01-29T22:45:31.760Z,83.90
2019-01-29T22:48:00.631Z,84.00
2019-01-29T22:50:31.595Z,84.50
2019-01-29T22:53:00.471Z,84.80
2019-01-29T22:55:29.458Z,84.50
2019-01-29T22:57:58.551Z,84.60
2019-01-29T23:00:53.057Z,84.40
2019-01-29T23:03:45.039Z,85.00
2019-01-29T23:06:52.793Z,85.20
2019-01-29T23:09:21.837Z,85.80
2019-01-29T23:11:50.704Z,85.50
2019-01-29T23:14:19.544Z,84.90
2019-01-29T23:16:48.568Z,85.10
2019-01-29T23:19:17.306Z,85.40
2019-01-29T23:21:46.067Z,86.40
2019-01-29T23:24:14.886Z,86.50
2019-01-29T23:26:43.919Z,86.60
2019-01-29T23:29:12.666Z,86.60
2019-01-29T23:31:41.736Z,86.90
2019-01-29T23:34:10.651Z,86.40
2019-01-29T23:36:39.498Z,86.40
2019-01-29T23:39:09.488Z,86.50
2019-01-29T23:41:38.387Z,86.20
2019-01-29T23:44:07.198Z,86.00
2019-01-29T23:46:36.000Z,85.60
2019-01-29T23:49:05.114Z,86.10
2019-01-29T23:51:33.859Z,86.50
2019-01-29T23:54:02.764Z,86.20
2019-01-29T23:56:31.895Z,85.80
2019-01-29T23:59:00.726Z,85.50
